createdAt,value
2018-06-13T00:02:28.108Z,15.63
2018-06-13T00:04:57.187Z,14.40
2018-06-13T00:07:26.202Z,22.00
2018-06-13T00:09:55.215Z,14.87
2018-06-13T00:12:24.246Z,26.00
2018-06-13T00:14:53.262Z,15.87
2018-06-13T00:17:22.296Z,16.60
2018-06-13T00:19:51.303Z,17.43
2018-06-13T00:22:20.320Z,16.07
2018-06-13T00:24:49.326Z,15.53
2018-06-13T00:27:18.348Z,11.33
2018-06-13T00:29:47.407Z,14.83
2018-06-13T00:32:16.430Z,11.97
2018-06-13T00:34:45.439Z,12.30
2018-06-13T00:37:15.452Z,13.17
2018-06-13T00:39:44.006Z,11.77
2018-06-13T00:42:13.016Z,11.80
2018-06-13T00:44:42.105Z,6.53
2018-06-13T00:47:11.092Z,8.70
2018-06-13T00:49:40.124Z,7.73
2018-06-13T00:52:09.254Z,15.27
2018-06-13T00:54:38.280Z,11.60
2018-06-13T00:57:07.259Z,9.67
2018-06-13T00:59:36.313Z,13.00
2018-06-13T01:02:05.386Z,7.07
2018-06-13T01:04:34.476Z,10.83
2018-06-13T01:07:03.508Z,10.50
2018-06-13T01:09:32.566Z,12.83
2018-06-13T01:12:01.603Z,11.87
2018-06-13T01:14:30.615Z,12.20
2018-06-13T01:16:59.632Z,15.67
2018-06-13T01:19:28.662Z,11.67
2018-06-13T01:21:57.943Z,12.10
2018-06-13T01:24:27.006Z,15.00
2018-06-13T01:26:56.035Z,14.50
2018-06-13T01:29:25.014Z,15.77
2018-06-13T01:31:54.086Z,14.03
2018-06-13T01:34:23.076Z,12.73
2018-06-13T01:36:52.115Z,14.73
2018-06-13T01:39:21.150Z,9.90
2018-06-13T01:41:50.144Z,11.50
2018-06-13T01:44:19.209Z,10.60
2018-06-13T01:46:48.190Z,13.83
2018-06-13T01:49:17.214Z,12.67
2018-06-13T01:51:46.226Z,11.83
2018-06-13T01:54:15.722Z,15.33
2018-06-13T01:56:44.728Z,12.90
2018-06-13T01:59:13.765Z,12.37
2018-06-13T02:01:43.308Z,12.93
2018-06-13T02:04:12.344Z,14.50
2018-06-13T02:06:41.349Z,11.57
2018-06-13T02:09:10.407Z,14.63
2018-06-13T02:11:39.443Z,17.03
2018-06-13T02:14:08.499Z,15.00
2018-06-13T02:16:37.531Z,10.20
2018-06-13T02:19:06.530Z,14.67
2018-06-13T02:21:35.633Z,23.03
2018-06-13T02:24:04.620Z,14.17
2018-06-13T02:26:33.642Z,12.20
2018-06-13T02:29:02.664Z,19.87
2018-06-13T02:31:31.701Z,19.50
2018-06-13T02:34:00.711Z,21.53
2018-06-13T02:36:29.792Z,19.53
2018-06-13T02:38:58.828Z,22.60
2018-06-13T02:41:27.807Z,20.93
2018-06-13T02:43:56.888Z,24.43
2018-06-13T02:46:25.895Z,31.30
2018-06-13T02:48:54.939Z,25.83
2018-06-13T02:51:23.935Z,37.33
2018-06-13T02:53:52.983Z,30.70
2018-06-13T02:56:21.991Z,48.53
2018-06-13T02:58:51.033Z,28.47
2018-06-13T03:01:20.023Z,41.67
2018-06-13T03:03:49.020Z,31.20
2018-06-13T03:06:18.058Z,44.13
2018-06-13T03:08:47.078Z,45.37
2018-06-13T03:11:16.123Z,53.13
2018-06-13T03:13:45.131Z,40.63
2018-06-13T03:16:14.204Z,41.07
2018-06-13T03:18:43.234Z,50.07
2018-06-13T03:21:12.290Z,62.67
2018-06-13T03:23:41.287Z,65.87
2018-06-13T03:26:10.387Z,55.17
2018-06-13T03:28:39.423Z,89.73
2018-06-13T03:31:08.404Z,49.13
2018-06-13T03:33:37.462Z,77.47
2018-06-13T03:36:06.596Z,48.93
2018-06-13T03:38:35.624Z,58.97
2018-06-13T03:41:04.626Z,84.20
2018-06-13T03:43:33.676Z,66.23
2018-06-13T03:46:02.706Z,54.90
2018-06-13T03:48:32.699Z,78.37
2018-06-13T03:51:01.703Z,61.57
2018-06-13T03:53:30.779Z,46.07
2018-06-13T03:55:59.834Z,41.33
2018-06-13T03:58:28.834Z,54.30
2018-06-13T04:00:57.886Z,55.87
2018-06-13T04:03:26.871Z,84.97
2018-06-13T04:05:55.910Z,62.67
2018-06-13T04:08:24.898Z,54.17
2018-06-13T04:10:54.440Z,37.80
2018-06-13T04:13:23.503Z,34.17
2018-06-13T04:15:52.536Z,34.10
2018-06-13T04:18:21.540Z,36.20
2018-06-13T04:20:50.579Z,39.77
2018-06-13T04:23:19.627Z,40.40
2018-06-13T04:25:48.642Z,39.97
2018-06-13T04:28:17.664Z,45.03
2018-06-13T04:30:46.667Z,48.87
2018-06-13T04:33:15.706Z,44.23
2018-06-13T04:35:44.731Z,48.67
2018-06-13T04:38:13.776Z,46.90
2018-06-13T04:40:42.773Z,47.90
2018-06-13T04:43:11.808Z,56.67
2018-06-13T04:45:40.831Z,56.50
2018-06-13T04:48:09.867Z,77.13
2018-06-13T04:50:38.897Z,59.03
2018-06-13T04:53:07.994Z,44.83
2018-06-13T04:55:37.051Z,49.47
2018-06-13T04:58:06.051Z,31.00
2018-06-13T05:00:35.068Z,37.10
2018-06-13T05:03:04.080Z,29.67
2018-06-13T05:05:33.129Z,36.07
2018-06-13T05:08:02.255Z,32.27
2018-06-13T05:10:31.303Z,32.47
2018-06-13T05:13:00.522Z,34.43
2018-06-13T05:15:29.570Z,38.77
2018-06-13T05:17:58.568Z,36.30
2018-06-13T05:20:27.675Z,24.10
2018-06-13T05:22:56.760Z,27.40
2018-06-13T05:25:25.775Z,23.40
2018-06-13T05:27:54.818Z,21.07
2018-06-13T05:30:23.360Z,20.47
2018-06-13T05:32:52.388Z,26.40
2018-06-13T05:35:20.967Z,25.10
2018-06-13T05:37:50.010Z,21.47
2018-06-13T05:40:19.010Z,28.20
2018-06-13T05:42:48.038Z,34.13
2018-06-13T05:45:17.097Z,26.50
2018-06-13T05:47:46.119Z,25.43
2018-06-13T05:50:15.237Z,24.40
2018-06-13T05:52:44.376Z,29.43
2018-06-13T05:55:13.502Z,26.23
2018-06-13T05:57:42.511Z,38.30
2018-06-13T06:00:11.544Z,28.70
2018-06-13T06:02:40.613Z,29.57
2018-06-13T06:05:09.656Z,36.00
2018-06-13T06:07:38.655Z,35.20
2018-06-13T06:10:07.839Z,38.03
2018-06-13T06:12:36.839Z,39.47
2018-06-13T06:15:05.922Z,39.87
2018-06-13T06:17:34.915Z,35.00
2018-06-13T06:20:04.043Z,44.50
2018-06-13T06:22:33.119Z,37.80
2018-06-13T06:25:02.141Z,47.10
2018-06-13T06:27:31.183Z,41.50
2018-06-13T06:30:00.190Z,40.97
2018-06-13T06:32:29.279Z,41.73
2018-06-13T06:34:58.319Z,38.43
2018-06-13T06:37:27.388Z,41.93
2018-06-13T06:39:55.916Z,52.90
2018-06-13T06:42:24.978Z,50.90
2018-06-13T06:44:54.021Z,51.27
2018-06-13T06:47:23.068Z,43.73
2018-06-13T06:49:52.081Z,41.37
2018-06-13T06:52:21.128Z,41.43
2018-06-13T06:54:50.180Z,36.03
2018-06-13T06:57:19.186Z,46.20
2018-06-13T06:59:48.252Z,34.27
2018-06-13T07:02:17.253Z,31.53
2018-06-13T07:04:46.292Z,34.57
2018-06-13T07:07:15.661Z,36.50
2018-06-13T07:09:44.699Z,31.70
2018-06-13T07:12:13.240Z,34.23
2018-06-13T07:14:42.283Z,46.37
2018-06-13T07:17:11.299Z,32.57
2018-06-13T07:19:40.341Z,30.53
2018-06-13T07:22:10.375Z,33.13
2018-06-13T07:24:39.453Z,33.20
2018-06-13T07:27:08.452Z,34.27
2018-06-13T07:29:37.501Z,40.83
2018-06-13T07:32:06.528Z,39.73
2018-06-13T07:34:35.551Z,39.60
2018-06-13T07:37:04.609Z,37.47
2018-06-13T07:39:33.665Z,49.73
2018-06-13T07:42:02.715Z,46.87
2018-06-13T07:44:31.791Z,47.27
2018-06-13T07:47:00.907Z,52.47
2018-06-13T07:49:29.939Z,53.23
2018-06-13T07:52:00.947Z,46.17
2018-06-13T07:54:29.968Z,42.57
2018-06-13T07:56:59.610Z,57.57
2018-06-13T07:59:28.643Z,42.40
2018-06-13T08:01:57.675Z,53.27
2018-06-13T08:04:26.721Z,54.70
2018-06-13T08:06:55.907Z,49.23
2018-06-13T08:09:24.931Z,50.57
2018-06-13T08:11:53.953Z,54.37
2018-06-13T08:14:23.007Z,51.43
2018-06-13T08:16:52.008Z,55.90
2018-06-13T08:19:21.088Z,48.80
2018-06-13T08:21:50.102Z,52.97
2018-06-13T08:24:19.148Z,47.43
2018-06-13T08:26:53.821Z,50.90
2018-06-13T08:29:23.574Z,51.87
2018-06-13T08:31:52.601Z,50.93
2018-06-13T08:34:21.648Z,55.23
2018-06-13T08:36:50.785Z,50.27
2018-06-13T08:39:19.772Z,57.97
2018-06-13T08:41:49.051Z,47.47
2018-06-13T08:44:18.080Z,62.57
2018-06-13T08:46:47.156Z,59.37
2018-06-13T08:49:16.155Z,63.17
2018-06-13T08:51:45.227Z,79.77
2018-06-13T08:54:14.255Z,76.57
2018-06-13T08:56:43.332Z,78.03
2018-06-13T08:59:12.380Z,68.37
2018-06-13T09:01:41.363Z,66.07
2018-06-13T09:04:10.428Z,61.60
2018-06-13T09:06:39.449Z,58.23
2018-06-13T09:09:09.007Z,58.93
2018-06-13T09:11:38.154Z,56.37
2018-06-13T09:14:07.249Z,63.43
2018-06-13T09:16:36.259Z,57.93
2018-06-13T09:19:05.296Z,65.63
2018-06-13T09:21:34.315Z,68.87
2018-06-13T09:24:03.372Z,80.27
2018-06-13T09:26:32.567Z,74.47
2018-06-13T09:29:01.592Z,73.37
2018-06-13T09:31:30.629Z,81.57
2018-06-13T09:33:59.650Z,75.83
2018-06-13T09:36:28.680Z,73.67
2018-06-13T09:38:57.703Z,67.40
2018-06-13T09:41:26.744Z,80.97
2018-06-13T09:43:55.800Z,66.33
2018-06-13T09:46:24.838Z,79.70
2018-06-13T09:48:53.935Z,78.50
2018-06-13T09:51:22.978Z,73.27
2018-06-13T09:53:52.035Z,79.40
2018-06-13T09:56:21.027Z,66.30
2018-06-13T09:58:55.189Z,76.93
2018-06-13T10:01:29.496Z,67.83
2018-06-13T10:03:58.587Z,65.40
2018-06-13T10:06:27.578Z,61.67
2018-06-13T10:08:56.604Z,57.77
2018-06-13T10:11:25.880Z,61.03
2018-06-13T10:13:54.925Z,63.30
2018-06-13T10:16:23.920Z,56.23
2018-06-13T10:18:53.147Z,65.97
2018-06-13T10:21:22.692Z,48.90
2018-06-13T10:23:51.706Z,55.63
2018-06-13T10:26:20.755Z,56.07
2018-06-13T10:28:49.792Z,63.60
2018-06-13T10:31:18.818Z,69.30
2018-06-13T10:33:47.825Z,58.70
2018-06-13T10:36:16.851Z,56.87
2018-06-13T10:38:45.863Z,66.93
2018-06-13T10:41:14.447Z,59.40
2018-06-13T10:43:43.493Z,68.43
2018-06-13T10:46:12.536Z,70.67
2018-06-13T10:48:41.543Z,75.83
2018-06-13T10:51:10.556Z,59.33
2018-06-13T10:53:39.575Z,60.57
2018-06-13T10:56:08.625Z,57.60
2018-06-13T10:58:37.809Z,59.27
2018-06-13T11:01:06.811Z,52.63
2018-06-13T11:03:35.859Z,61.67
2018-06-13T11:06:04.987Z,55.23
2018-06-13T11:08:34.054Z,49.43
2018-06-13T11:11:03.295Z,51.23
2018-06-13T11:13:32.324Z,57.83
2018-06-13T11:16:01.354Z,57.53
2018-06-13T11:18:30.444Z,47.20
2018-06-13T11:20:59.469Z,56.43
2018-06-13T11:23:28.675Z,53.83
2018-06-13T11:25:57.707Z,53.47
2018-06-13T11:28:26.739Z,56.37
2018-06-13T11:30:55.794Z,51.50
2018-06-13T11:33:24.848Z,52.40
2018-06-13T11:35:53.847Z,56.50
2018-06-13T11:38:22.903Z,54.43
2018-06-13T11:40:51.912Z,43.00
2018-06-13T11:43:20.949Z,55.40
2018-06-13T11:45:49.988Z,61.30
2018-06-13T11:48:19.047Z,61.20
2018-06-13T11:50:48.078Z,49.87
2018-06-13T11:53:17.112Z,51.83
2018-06-13T11:55:46.167Z,54.57
2018-06-13T11:58:15.306Z,50.93
2018-06-13T12:00:44.325Z,45.67
2018-06-13T12:03:12.986Z,44.77
2018-06-13T12:05:41.987Z,40.23
2018-06-13T12:08:11.067Z,45.10
2018-06-13T12:10:40.107Z,42.47
2018-06-13T12:13:09.173Z,40.80
2018-06-13T12:15:38.206Z,40.37
2018-06-13T12:18:07.288Z,35.13
2018-06-13T12:20:36.466Z,42.67
2018-06-13T12:23:05.532Z,38.07
2018-06-13T12:25:34.634Z,39.10
2018-06-13T12:28:03.674Z,41.30
2018-06-13T12:30:32.718Z,38.00
2018-06-13T12:33:01.762Z,43.13
2018-06-13T12:35:30.865Z,37.00
2018-06-13T12:37:59.875Z,37.10
2018-06-13T12:40:28.923Z,39.43
2018-06-13T12:42:57.978Z,35.50
2018-06-13T12:45:27.110Z,40.87
2018-06-13T12:47:56.168Z,40.00
2018-06-13T12:50:25.196Z,43.23
2018-06-13T12:52:54.484Z,36.93
2018-06-13T12:55:23.504Z,34.93
2018-06-13T12:57:52.553Z,43.63
2018-06-13T13:00:21.574Z,42.90
2018-06-13T13:02:50.683Z,39.17
2018-06-13T13:05:19.747Z,41.60
2018-06-13T13:07:48.870Z,45.03
2018-06-13T13:10:17.945Z,38.80
2018-06-13T13:12:46.987Z,42.60
2018-06-13T13:15:16.080Z,40.00
2018-06-13T13:17:45.095Z,44.63
2018-06-13T13:20:14.191Z,39.07
2018-06-13T13:22:43.160Z,39.70
2018-06-13T13:25:12.208Z,39.03
2018-06-13T13:27:41.239Z,42.13
2018-06-13T13:30:10.278Z,43.17
2018-06-13T13:32:39.351Z,40.20
2018-06-13T13:35:08.366Z,44.70
2018-06-13T13:37:37.423Z,47.27
2018-06-13T13:40:06.527Z,38.80
2018-06-13T13:42:35.580Z,42.93
2018-06-13T13:45:04.791Z,46.77
2018-06-13T13:47:33.968Z,34.63
2018-06-13T13:50:02.992Z,38.13
2018-06-13T13:52:32.104Z,40.60
2018-06-13T13:55:01.111Z,39.23
2018-06-13T13:57:29.734Z,34.30
2018-06-13T13:59:59.044Z,37.93
2018-06-13T14:02:28.083Z,34.47
2018-06-13T14:04:57.132Z,28.97
2018-06-13T14:07:26.883Z,38.60
2018-06-13T14:09:55.958Z,36.10
2018-06-13T14:12:24.971Z,32.93
2018-06-13T14:14:54.033Z,30.67
2018-06-13T14:17:23.091Z,41.13
2018-06-13T14:19:52.119Z,30.57
2018-06-13T14:22:21.275Z,31.37
2018-06-13T14:24:50.861Z,26.10
2018-06-13T14:27:19.960Z,30.10
2018-06-13T14:29:48.959Z,35.33
2018-06-13T14:32:18.084Z,29.20
2018-06-13T14:34:47.138Z,31.50
2018-06-13T14:37:16.206Z,27.60
2018-06-13T14:39:45.515Z,26.17
2018-06-13T14:42:14.064Z,34.60
2018-06-13T14:44:43.115Z,30.47
2018-06-13T14:47:12.231Z,27.93
2018-06-13T14:49:41.655Z,31.37
2018-06-13T14:52:10.659Z,33.30
2018-06-13T14:54:39.717Z,30.03
2018-06-13T14:57:08.813Z,31.10
2018-06-13T14:59:37.890Z,37.50
2018-06-13T15:02:07.081Z,29.60
2018-06-13T15:04:36.612Z,38.20
2018-06-13T15:07:07.049Z,30.27
2018-06-13T15:09:36.121Z,35.10
2018-06-13T15:12:05.271Z,35.07
2018-06-13T15:14:33.874Z,33.30
2018-06-13T15:17:02.998Z,34.03
2018-06-13T15:19:32.111Z,34.93
2018-06-13T15:22:01.258Z,32.37
2018-06-13T15:24:30.278Z,29.20
2018-06-13T15:26:59.375Z,30.63
2018-06-13T15:29:28.515Z,27.13
2018-06-13T15:31:57.175Z,30.60
2018-06-13T15:34:26.249Z,28.33
2018-06-13T15:36:55.507Z,27.50
2018-06-13T15:39:24.585Z,27.73
2018-06-13T15:41:53.166Z,27.53
2018-06-13T15:44:22.230Z,37.20
2018-06-13T15:46:51.343Z,28.93
2018-06-13T15:49:20.411Z,28.83
2018-06-13T15:51:49.484Z,27.00
2018-06-13T15:54:18.651Z,26.60
2018-06-13T15:56:47.737Z,21.90
2018-06-13T15:59:16.795Z,28.53
2018-06-13T16:01:45.889Z,23.40
2018-06-13T16:04:14.944Z,28.43
2018-06-13T16:06:44.297Z,26.10
2018-06-13T16:09:13.340Z,24.40
2018-06-13T16:11:42.390Z,25.03
2018-06-13T16:14:11.493Z,30.20
2018-06-13T16:16:40.610Z,29.93
2018-06-13T16:19:09.670Z,28.03
2018-06-13T16:21:38.778Z,30.13
2018-06-13T16:24:07.342Z,28.20
2018-06-13T16:26:36.360Z,29.00
2018-06-13T16:29:05.611Z,31.13
2018-06-13T16:31:34.794Z,31.27
2018-06-13T16:34:03.792Z,28.73
2018-06-13T16:36:32.851Z,31.20
2018-06-13T16:39:01.884Z,26.00
2018-06-13T16:41:30.923Z,35.13
2018-06-13T16:44:00.012Z,24.30
2018-06-13T16:46:28.603Z,29.23
2018-06-13T16:48:57.646Z,26.80
2018-06-13T16:51:37.619Z,21.90
2018-06-13T16:54:13.020Z,24.37
2018-06-13T16:56:42.626Z,24.30
2018-06-13T16:59:11.701Z,23.43
2018-06-13T17:01:40.750Z,26.83
2018-06-13T17:04:09.844Z,25.13
2018-06-13T17:06:38.841Z,25.70
2018-06-13T17:09:08.423Z,26.20
2018-06-13T17:11:37.455Z,26.23
2018-06-13T17:14:06.555Z,28.90
2018-06-13T17:16:35.758Z,23.13
2018-06-13T17:19:04.857Z,24.77
2018-06-13T17:21:33.923Z,28.43
2018-06-13T17:24:02.494Z,25.93
2018-06-13T17:26:31.546Z,28.07
2018-06-13T17:29:00.580Z,25.43
2018-06-13T17:31:29.660Z,28.73
2018-06-13T17:33:58.699Z,25.73
2018-06-13T17:36:27.808Z,27.60
2018-06-13T17:38:56.858Z,26.53
2018-06-13T17:41:25.911Z,30.83
2018-06-13T17:43:54.982Z,35.37
2018-06-13T17:46:24.039Z,28.73
2018-06-13T17:48:53.187Z,23.93
2018-06-13T17:51:22.246Z,29.90
2018-06-13T17:53:51.307Z,24.90
2018-06-13T17:56:20.333Z,27.43
2018-06-13T17:58:49.447Z,31.20
2018-06-13T18:01:18.525Z,22.90
2018-06-13T18:03:47.713Z,25.63
2018-06-13T18:06:16.746Z,24.90
2018-06-13T18:08:45.832Z,23.17
2018-06-13T18:11:14.903Z,27.30
2018-06-13T18:13:43.961Z,22.13
2018-06-13T18:16:12.990Z,21.10
2018-06-13T18:18:42.072Z,22.97
2018-06-13T18:21:11.100Z,29.10
2018-06-13T18:23:40.190Z,20.50
2018-06-13T18:26:09.295Z,25.47
2018-06-13T18:28:38.321Z,27.53
2018-06-13T18:31:07.408Z,23.87
2018-06-13T18:33:35.982Z,31.33
2018-06-13T18:36:05.107Z,23.27
2018-06-13T18:38:34.155Z,31.20
2018-06-13T18:41:03.190Z,18.33
2018-06-13T18:43:32.204Z,20.50
2018-06-13T18:46:01.306Z,18.80
2018-06-13T18:48:30.411Z,24.90
2018-06-13T18:50:59.468Z,15.53
2018-06-13T18:53:28.617Z,14.47
2018-06-13T18:55:57.976Z,16.40
2018-06-13T18:58:27.607Z,17.80
2018-06-13T19:00:57.078Z,17.40
2018-06-13T19:03:27.423Z,16.37
2018-06-13T19:05:56.430Z,17.00
2018-06-13T19:08:26.374Z,14.90
2018-06-13T19:10:55.739Z,17.20
2018-06-13T19:13:24.779Z,12.53
2018-06-13T19:15:53.813Z,17.43
2018-06-13T19:18:23.178Z,14.17
2018-06-13T19:20:52.274Z,22.33
2018-06-13T19:23:21.255Z,15.60
2018-06-13T19:25:50.291Z,14.23
2018-06-13T19:28:19.458Z,13.50
2018-06-13T19:30:48.572Z,14.30
2018-06-13T19:33:17.622Z,16.77
2018-06-13T19:35:46.709Z,17.13
2018-06-13T19:38:15.719Z,20.10
2018-06-13T19:40:44.765Z,15.80
2018-06-13T19:43:18.775Z,12.37
2018-06-13T19:45:47.840Z,13.37
2018-06-13T19:48:22.071Z,17.40
2018-06-13T19:50:51.143Z,17.23
2018-06-13T19:53:25.330Z,14.47
2018-06-13T19:55:59.407Z,17.70
2018-06-13T19:58:28.440Z,15.90
2018-06-13T20:00:57.484Z,16.53
2018-06-13T20:03:31.679Z,15.37
2018-06-13T20:06:00.715Z,12.30
2018-06-13T20:08:29.759Z,12.03
2018-06-13T20:10:58.761Z,14.20
2018-06-13T20:13:32.832Z,15.23
2018-06-13T20:16:07.034Z,14.20
2018-06-13T20:18:42.311Z,13.37
2018-06-13T20:21:12.255Z,13.33
2018-06-13T20:23:42.520Z,15.80
2018-06-13T20:26:16.655Z,17.77
2018-06-13T20:28:50.791Z,16.93
2018-06-13T20:31:27.763Z,12.87
2018-06-13T20:33:56.824Z,15.20
2018-06-13T20:36:25.868Z,19.00
2018-06-13T20:38:54.957Z,18.23
2018-06-13T20:41:24.049Z,17.50
2018-06-13T20:43:53.301Z,16.17
2018-06-13T20:46:22.377Z,21.20
2018-06-13T20:48:51.449Z,17.33
2018-06-13T20:51:20.495Z,14.13
2018-06-13T20:53:49.631Z,18.17
2018-06-13T20:56:18.722Z,17.37
2018-06-13T20:58:51.321Z,14.80
2018-06-13T21:01:20.480Z,14.87
2018-06-13T21:03:49.594Z,18.77
2018-06-13T21:06:18.703Z,19.57
2018-06-13T21:08:48.746Z,15.13
2018-06-13T21:11:17.935Z,19.70
2018-06-13T21:13:47.023Z,20.70
2018-06-13T21:16:16.507Z,20.23
2018-06-13T21:18:45.517Z,15.80
2018-06-13T21:21:14.635Z,13.90
2018-06-13T21:23:43.659Z,17.17
2018-06-13T21:26:12.736Z,17.97
2018-06-13T21:28:41.846Z,16.83
2018-06-13T21:31:10.845Z,17.60
2018-06-13T21:33:39.905Z,14.37
2018-06-13T21:36:08.936Z,15.03
2018-06-13T21:38:37.967Z,15.30
2018-06-13T21:41:06.966Z,16.03
2018-06-13T21:43:36.059Z,12.53
2018-06-13T21:46:05.234Z,12.67
2018-06-13T21:48:34.322Z,14.50
2018-06-13T21:51:03.387Z,15.40
2018-06-13T21:53:32.404Z,17.30
2018-06-13T21:56:01.509Z,13.40
2018-06-13T21:58:30.092Z,15.93
2018-06-13T22:00:59.157Z,12.13
2018-06-13T22:03:28.260Z,12.30
2018-06-13T22:05:57.360Z,15.10
2018-06-13T22:08:26.423Z,15.57
2018-06-13T22:10:55.462Z,16.47
2018-06-13T22:13:24.529Z,18.63
2018-06-13T22:15:53.555Z,13.93
2018-06-13T22:18:23.444Z,11.10
2018-06-13T22:20:52.459Z,16.50
2018-06-13T22:23:21.551Z,14.73
2018-06-13T22:25:50.566Z,15.87
2018-06-13T22:28:19.673Z,12.53
2018-06-13T22:30:48.763Z,12.20
2018-06-13T22:33:17.799Z,11.57
2018-06-13T22:35:46.816Z,16.90
2018-06-13T22:38:16.907Z,13.23
2018-06-13T22:40:45.966Z,13.57
2018-06-13T22:43:15.072Z,13.00
2018-06-13T22:45:44.147Z,11.57
2018-06-13T22:48:13.394Z,14.40
2018-06-13T22:50:42.463Z,15.00
2018-06-13T22:53:11.555Z,14.50
2018-06-13T22:55:40.596Z,13.00
2018-06-13T22:58:09.611Z,10.80
2018-06-13T23:01:18.087Z,11.80
2018-06-13T23:03:47.136Z,14.27
2018-06-13T23:06:16.187Z,15.70
2018-06-13T23:08:45.172Z,12.40
2018-06-13T23:11:14.208Z,12.33
2018-06-13T23:13:44.131Z,16.57
2018-06-13T23:16:13.242Z,18.83
2018-06-13T23:18:42.275Z,15.33
2018-06-13T23:21:11.316Z,14.43
2018-06-13T23:23:40.379Z,11.00
2018-06-13T23:26:09.398Z,12.07
2018-06-13T23:28:38.421Z,18.07
2018-06-13T23:31:07.431Z,15.87
2018-06-13T23:33:36.480Z,15.90
2018-06-13T23:36:06.349Z,15.23
2018-06-13T23:38:35.390Z,15.17
2018-06-13T23:41:04.439Z,15.10
2018-06-13T23:43:33.473Z,16.90
2018-06-13T23:46:02.489Z,13.03
2018-06-13T23:48:31.563Z,12.93
2018-06-13T23:51:00.599Z,18.00
2018-06-13T23:53:29.641Z,12.50
2018-06-13T23:55:58.675Z,11.90
2018-06-13T23:58:27.696Z,12.60
